WSAP/QPG METAR and TAF weather

Enter ICAO airport designator
Station Type Date Time Source
WSAP METAR 2019/06/26 20:00 UTC NOAA

WSAP 262000Z 02001KT 9999 FEW018 BKN300 28/25 Q1009


Station Type Date Time Source
WSAP Decoded METAR 2019/06/26 20:00 UTC NOAA

Singapore / Paya Lebar, Singapore (WSAP) 01-22N 103-55E 32M
Jun 26, 2019 - 04:00 PM EDT / 2019.06.26 2000 UTC
Wind: from the NNE (020 degrees) at 1 MPH (1 KT):0
Visibility: greater than 7 mile(s):0
Sky conditions: mostly cloudy
Temperature: 82 F (28 C)
Dew Point: 77 F (25 C)
Relative Humidity: 83%
Pressure (altimeter): 29.80 in. Hg (1009 hPa)
ob: WSAP 262000Z 02001KT 9999 FEW018 BKN300 28/25 Q1009
cycle: 20

Station Type Date Time Source
WSAP TAF 2019/06/26 18:08 UTC NOAA

TAF WSAP 261700Z 2618/2800 17010KT 9999 FEW015 SCT020

Example: see airport list